Time;durP1;ratioP1;P1;durP2;ratioP2;P2;SDS_P1;SDS_P2;PMS_P1;PMS_P2;Temp;Humidity;BMP_temperature;BMP_pressure;BME280_temperature;BME280_humidity;BME280_pressure;Samples;Min_cycle;Max_cycle;Signal;HPM_P1;HPM_P2
2023/10/25 00:01:27;;;;;;;17.58;10.38;;;;;;;19.96;45.45;94667.56;6147276;28;109179;-65
2023/10/25 00:04:30;;;;;;;14.80;10.20;;;;;;;19.95;45.24;94666.00;6158926;28;109050;-65
2023/10/25 00:07:34;;;;;;;14.07;8.68;;;;;;;20.14;45.17;94669.25;6161658;28;110026;-64
2023/10/25 00:10:38;;;;;;;15.17;9.10;;;;;;;20.12;44.78;94668.00;6148942;28;110882;-64
2023/10/25 00:13:41;;;;;;;11.75;7.72;;;;;;;19.92;45.20;94661.28;6150691;28;109132;-65
2023/10/25 00:16:44;;;;;;;10.80;7.03;;;;;;;19.92;45.14;94645.34;6154363;28;109195;-65
2023/10/25 00:19:48;;;;;;;12.63;6.10;;;;;;;19.78;45.22;94641.97;6148916;28;110143;-64
2023/10/25 00:22:51;;;;;;;9.63;5.65;;;;;;;19.79;45.02;94628.38;6154071;28;110594;-65
2023/10/25 00:25:55;;;;;;;8.95;5.70;;;;;;;19.76;45.11;94613.06;6163479;28;109765;-65
2023/10/25 00:28:58;;;;;;;11.20;5.80;;;;;;;19.99;44.78;94621.81;6166072;28;109450;-65
2023/10/25 00:32:02;;;;;;;10.80;6.00;;;;;;;20.21;44.38;94626.34;6158575;28;109291;-65
2023/10/25 00:35:06;;;;;;;10.40;6.00;;;;;;;20.34;44.36;94632.72;6138792;28;109072;-64
2023/10/25 00:38:09;;;;;;;9.80;5.60;;;;;;;20.44;44.25;94613.81;6153395;28;109179;-64
2023/10/25 00:41:13;;;;;;;10.40;5.90;;;;;;;20.37;43.98;94619.59;6173515;28;109357;-64
2023/10/25 00:44:17;;;;;;;9.77;5.30;;;;;;;20.19;44.08;94604.59;6140966;28;111820;-66
2023/10/25 00:47:20;;;;;;;8.70;5.10;;;;;;;20.17;44.24;94607.56;6152190;28;109042;-64
2023/10/25 00:50:23;;;;;;;9.45;5.20;;;;;;;20.20;44.13;94611.50;6154825;28;109261;-65
2023/10/25 00:53:27;;;;;;;8.15;4.90;;;;;;;20.22;44.42;94607.44;6175129;28;108903;-65
2023/10/25 00:56:33;;;;;;;8.07;4.53;;;;;;;20.13;44.30;94597.84;6177970;28;109364;-64
2023/10/25 00:59:37;;;;;;;10.18;5.05;;;;;;;20.09;44.43;94616.25;6143568;28;109062;-65
2023/10/25 01:02:40;;;;;;;9.00;4.82;;;;;;;20.24;44.14;94617.75;6146780;28;110116;-64
2023/10/25 01:05:44;;;;;;;7.97;5.15;;;;;;;20.39;44.04;94622.72;6145865;28;109752;-64
2023/10/25 01:08:48;;;;;;;8.80;5.18;;;;;;;20.38;43.74;94615.84;6153746;28;110545;-65
2023/10/25 01:11:53;;;;;;;10.15;4.90;;;;;;;20.27;44.24;94612.66;6162626;28;109139;-66
2023/10/25 01:14:56;;;;;;;8.27;4.32;;;;;;;20.30;44.10;94592.66;6162626;28;113605;-65
2023/10/25 01:17:59;;;;;;;8.68;4.10;;;;;;;20.06;44.27;94589.53;6154372;28;109411;-65
2023/10/25 01:21:02;;;;;;;8.00;4.57;;;;;;;20.00;44.55;94583.56;6164343;28;109401;-66
2023/10/25 01:24:08;;;;;;;8.65;4.60;;;;;;;20.08;44.35;94601.41;6182567;28;109195;-65
2023/10/25 01:27:11;;;;;;;8.68;4.80;;;;;;;20.12;44.63;94596.28;6186086;28;108899;-66
2023/10/25 01:30:14;;;;;;;10.13;4.93;;;;;;;20.17;44.14;94586.31;6127332;28;110080;-66
2023/10/25 01:33:17;;;;;;;7.03;4.23;;;;;;;20.25;44.06;94584.81;6149811;28;109173;-66
2023/10/25 01:36:20;;;;;;;8.85;4.88;;;;;;;20.01;44.56;94591.22;6166775;28;110394;-65
2023/10/25 01:39:25;;;;;;;9.82;4.50;;;;;;;20.06;44.50;94587.66;6169619;28;109223;-65
2023/10/25 01:42:28;;;;;;;9.17;4.97;;;;;;;20.21;44.17;94584.63;6155467;28;109120;-65
2023/10/25 01:45:31;;;;;;;7.85;4.10;;;;;;;20.09;44.35;94587.03;6187289;28;110320;-65
2023/10/25 01:48:34;;;;;;;10.88;5.00;;;;;;;20.09;44.31;94587.03;6173048;28;109029;-64
2023/10/25 01:51:37;;;;;;;8.00;4.80;;;;;;;20.12;44.73;94605.03;6151531;28;110993;-65
2023/10/25 01:54:44;;;;;;;9.82;4.50;;;;;;;20.07;44.41;94618.44;6161174;28;112121;-65
2023/10/25 01:57:48;;;;;;;8.15;4.60;;;;;;;20.15;44.25;94575.19;6161214;28;109329;-66
2023/10/25 02:00:51;;;;;;;8.40;4.03;;;;;;;20.01;44.64;94635.59;6161455;28;108817;-65
2023/10/25 02:03:54;;;;;;;10.47;4.60;;;;;;;19.99;44.41;94595.25;6144619;28;109161;-62
2023/10/25 02:06:58;;;;;;;9.05;4.32;;;;;;;20.14;44.27;94607.38;6140006;28;110357;-65
2023/10/25 02:10:02;;;;;;;9.35;4.70;;;;;;;20.00;44.50;94653.41;6163210;28;109085;-65
2023/10/25 02:13:05;;;;;;;9.48;4.15;;;;;;;19.92;44.63;94619.56;6161541;28;109059;-62
2023/10/25 02:16:13;;;;;;;8.00;4.28;;;;;;;20.06;44.31;94632.03;6148561;28;108962;-61
2023/10/25 02:19:17;;;;;;;8.57;4.10;;;;;;;20.13;44.21;94625.19;6156943;28;110297;-63
2023/10/25 02:22:20;;;;;;;8.98;4.40;;;;;;;20.14;44.25;94592.22;6147466;28;109239;-62
2023/10/25 02:25:24;;;;;;;8.65;3.92;;;;;;;20.19;44.06;94620.56;6177862;28;109367;-61
2023/10/25 02:28:28;;;;;;;7.57;4.03;;;;;;;20.20;43.85;94593.69;6173846;28;109326;-63
2023/10/25 02:31:33;;;;;;;9.18;4.60;;;;;;;20.26;43.79;94615.59;6137617;28;110258;-64
2023/10/25 02:34:36;;;;;;;9.40;4.13;;;;;;;20.15;43.89;94583.16;6156758;28;109341;-61
2023/10/25 02:37:40;;;;;;;8.77;4.30;;;;;;;20.25;44.02;94611.38;6150147;28;110117;-64
2023/10/25 02:40:44;;;;;;;7.65;4.05;;;;;;;20.17;44.19;94541.16;6137279;28;109207;-61
2023/10/25 02:43:47;;;;;;;8.43;4.03;;;;;;;20.14;44.02;94568.31;6158803;28;109841;-61
2023/10/25 02:46:50;;;;;;;9.10;4.50;;;;;;;20.12;43.98;94514.72;6160384;28;109537;-62
2023/10/25 02:49:53;;;;;;;11.25;4.90;;;;;;;20.24;43.87;94562.78;6150177;28;110919;-65
2023/10/25 02:52:57;;;;;;;8.75;4.93;;;;;;;20.10;43.83;94508.13;6161364;28;110314;-66
2023/10/25 02:56:02;;;;;;;10.50;4.23;;;;;;;20.05;44.07;94530.31;6158545;28;109108;-61
2023/10/25 02:59:05;;;;;;;9.18;4.50;;;;;;;20.05;44.03;94509.06;6154179;28;109069;-61
2023/10/25 03:02:08;;;;;;;9.25;4.50;;;;;;;20.13;43.98;94495.03;6154145;28;110846;-60
2023/10/25 03:05:11;;;;;;;7.40;4.47;;;;;;;20.07;43.85;94461.72;6174520;28;108899;-61
2023/10/25 03:08:14;;;;;;;8.10;4.37;;;;;;;20.19;43.87;94512.41;6166932;28;109070;-61
2023/10/25 03:11:19;;;;;;;9.73;5.30;;;;;;;20.27;43.58;94484.34;6152772;28;109229;-61
2023/10/25 03:14:22;;;;;;;11.47;5.07;;;;;;;20.23;43.74;94451.47;6161016;28;110091;-62
2023/10/25 03:17:27;;;;;;;8.30;4.53;;;;;;;20.39;43.51;94494.38;6136158;28;109270;-67
2023/10/25 03:20:30;;;;;;;10.40;6.37;;;;;;;20.60;43.63;94506.00;6159808;28;109194;-67
2023/10/25 03:23:34;;;;;;;12.88;11.05;;;;;;;20.61;43.69;94455.19;6150340;28;109425;-67
2023/10/25 03:26:38;;;;;;;40.13;36.90;;;;;;;20.69;43.90;94471.50;6160320;28;109345;-62
2023/10/25 03:29:41;;;;;;;75.22;69.47;;;;;;;20.76;43.92;94501.81;6163839;28;109088;-63
2023/10/25 03:32:45;;;;;;;25.57;23.23;;;;;;;20.55;44.00;94466.28;6160041;28;109275;-61
2023/10/25 03:35:53;;;;;;;22.10;19.90;;;;;;;20.59;43.96;94477.88;6133467;28;109243;-62
2023/10/25 03:38:56;;;;;;;19.00;17.17;;;;;;;20.59;43.58;94457.38;6161529;28;109296;-61
2023/10/25 03:42:00;;;;;;;20.92;18.65;;;;;;;20.61;44.00;94455.19;6164665;28;108930;-62
2023/10/25 03:45:06;;;;;;;19.90;17.93;;;;;;;20.68;43.86;94457.41;6152678;28;109094;-68
2023/10/25 03:48:09;;;;;;;19.25;17.45;;;;;;;20.68;43.90;94457.41;6159101;28;109017;-62
2023/10/25 03:51:12;;;;;;;21.52;19.23;;;;;;;20.72;43.88;94465.53;6158704;28;109359;-62
2023/10/25 03:54:15;;;;;;;25.83;23.27;;;;;;;20.79;44.14;94456.00;6165560;28;109243;-61
2023/10/25 03:57:20;;;;;;;22.27;20.00;;;;;;;20.84;44.44;94469.16;6152836;28;109306;-62
2023/10/25 04:00:23;;;;;;;19.73;17.63;;;;;;;20.86;44.15;94492.78;6170171;28;109062;-62
2023/10/25 04:03:26;;;;;;;17.87;15.50;;;;;;;20.86;44.68;94466.97;6168970;28;110111;-62
2023/10/25 04:06:29;;;;;;;17.15;15.45;;;;;;;20.96;44.71;94491.69;6165568;28;109640;-63
2023/10/25 04:09:33;;;;;;;16.13;12.43;;;;;;;21.02;43.86;94482.47;6151550;28;110114;-62
2023/10/25 04:12:37;;;;;;;14.35;11.80;;;;;;;21.03;43.84;94473.41;6163451;28;109095;-63
2023/10/25 04:15:40;;;;;;;13.10;10.70;;;;;;;21.03;44.13;94473.41;6164165;28;109283;-61
2023/10/25 04:18:43;;;;;;;14.80;10.90;;;;;;;21.11;44.84;94483.28;6145144;28;109245;-62
2023/10/25 04:21:46;;;;;;;14.70;9.45;;;;;;;20.99;43.88;94454.59;6144812;28;110580;-64
2023/10/25 04:24:49;;;;;;;14.85;11.40;;;;;;;20.78;43.91;94470.38;6164594;28;110095;-63
2023/10/25 04:27:55;;;;;;;14.63;10.67;;;;;;;20.63;44.20;94466.28;6163902;28;110311;-63
2023/10/25 04:30:59;;;;;;;15.43;10.03;;;;;;;20.61;44.36;94475.69;6177219;28;109481;-63
2023/10/25 04:34:02;;;;;;;13.00;9.07;;;;;;;20.58;44.24;94466.44;6180113;28;108999;-63
2023/10/25 04:37:05;;;;;;;12.27;8.90;;;;;;;20.58;43.64;94482.41;6164523;28;109978;-63
2023/10/25 04:40:10;;;;;;;14.27;7.77;;;;;;;20.55;44.00;94450.34;6164131;28;110005;-61
2023/10/25 04:43:14;;;;;;;13.80;9.20;;;;;;;20.56;44.12;94470.50;6153202;28;108999;-61
2023/10/25 04:46:18;;;;;;;15.35;8.98;;;;;;;20.53;44.23;94429.41;6164216;28;110127;-62
2023/10/25 04:49:21;;;;;;;11.82;7.88;;;;;;;20.51;44.45;94446.75;6163731;28;109230;-61
2023/10/25 04:52:24;;;;;;;13.32;7.72;;;;;;;20.51;44.35;94433.47;6163089;28;109037;-62
2023/10/25 04:55:29;;;;;;;11.93;7.10;;;;;;;20.47;44.15;94441.25;6153697;28;111187;-61
2023/10/25 04:58:33;;;;;;;11.50;7.47;;;;;;;20.45;44.33;94418.72;6166147;28;109756;-61
2023/10/25 05:01:37;;;;;;;12.50;7.13;;;;;;;20.42;44.24;94403.41;6188116;28;109051;-61
2023/10/25 05:04:40;;;;;;;12.03;7.23;;;;;;;20.44;44.09;94417.16;6178068;28;109380;-62
2023/10/25 05:07:43;;;;;;;13.75;6.68;;;;;;;20.44;44.28;94417.16;6186699;28;109239;-62
2023/10/25 05:10:52;;;;;;;13.17;7.40;;;;;;;20.40;44.50;94432.19;6187866;28;110204;-61
2023/10/25 05:13:57;;;;;;;12.43;7.25;;;;;;;20.44;44.29;94422.47;6183135;28;108981;-61
2023/10/25 05:17:01;;;;;;;13.37;6.83;;;;;;;20.42;44.15;94400.75;6151951;28;109112;-61
2023/10/25 05:20:06;;;;;;;12.88;7.50;;;;;;;20.43;44.26;94442.19;6177202;28;109209;-61
2023/10/25 05:23:11;;;;;;;10.27;6.60;;;;;;;20.39;44.23;94402.16;6172709;28;109962;-60
2023/10/25 05:26:15;;;;;;;13.27;7.28;;;;;;;20.35;44.37;94425.13;6162420;28;109271;-60
2023/10/25 05:29:20;;;;;;;12.93;7.43;;;;;;;20.38;44.28;94426.38;6152676;28;109083;-60
2023/10/25 05:32:26;;;;;;;13.10;8.10;;;;;;;20.38;44.41;94434.38;6162600;28;109105;-61
2023/10/25 05:35:30;;;;;;;13.30;7.50;;;;;;;20.37;44.28;94425.59;6163049;28;110124;-61
2023/10/25 05:38:33;;;;;;;11.20;7.00;;;;;;;20.39;44.36;94415.44;6157164;28;109022;-62
2023/10/25 05:41:41;;;;;;;13.37;7.37;;;;;;;20.59;46.17;94449.41;6158067;28;109208;-68
2023/10/25 05:44:46;;;;;;;12.02;7.43;;;;;;;20.61;44.32;94428.59;6163257;28;110054;-62
2023/10/25 05:47:50;;;;;;;16.63;8.07;;;;;;;20.55;44.23;94440.50;6163166;28;110142;-66
2023/10/25 05:50:55;;;;;;;16.88;8.60;;;;;;;20.52;44.46;94453.63;6152206;28;109088;-66
2023/10/25 05:53:59;;;;;;;14.10;7.77;;;;;;;20.50;44.16;94415.91;6165211;28;109412;-65
2023/10/25 05:57:03;;;;;;;13.48;8.40;;;;;;;20.38;44.52;94421.06;6187200;28;110290;-65
2023/10/25 06:00:09;;;;;;;13.02;8.00;;;;;;;20.46;44.45;94460.16;6186525;28;109240;-65
2023/10/25 06:03:15;;;;;;;13.20;7.80;;;;;;;20.43;44.22;94439.53;6176016;28;109181;-65
2023/10/25 06:06:35;;;;;;;14.05;7.40;;;;;;;20.44;44.43;94422.47;6186658;28;110272;-64
2023/10/25 06:09:38;;;;;;;14.30;7.80;;;;;;;20.50;44.52;94471.72;6186396;28;110333;-64
2023/10/25 06:12:42;;;;;;;14.35;8.63;;;;;;;20.54;44.38;94438.16;6180178;28;108799;-68
2023/10/25 06:15:47;;;;;;;15.65;8.10;;;;;;;20.61;44.02;94435.81;6167059;28;109082;-69
2023/10/25 06:18:50;;;;;;;16.58;10.05;;;;;;;20.67;43.76;94447.06;6160590;28;109104;-69
2023/10/25 06:21:54;;;;;;;17.52;9.60;;;;;;;20.73;44.03;94461.78;6161302;28;109367;-70
2023/10/25 06:24:57;;;;;;;16.75;10.90;;;;;;;20.76;44.23;94453.97;6160616;28;109111;-69
2023/10/25 06:28:00;;;;;;;13.77;9.47;;;;;;;20.70;44.49;94449.91;6185654;28;109643;-65
2023/10/25 06:31:05;;;;;;;17.67;9.35;;;;;;;20.61;44.44;94449.88;6186243;28;109273;-64
2023/10/25 06:34:08;;;;;;;13.67;9.60;;;;;;;20.61;44.57;94473.03;6186365;28;108935;-65
2023/10/25 06:37:14;;;;;;;16.53;12.00;;;;;;;20.65;44.58;94443.94;6176269;28;108991;-65
2023/10/25 06:40:19;;;;;;;19.27;12.15;;;;;;;20.66;44.62;94432.22;6185621;28;109263;-66
2023/10/25 06:43:23;;;;;;;19.30;12.87;;;;;;;20.67;44.64;94444.41;6185855;28;109071;-66
2023/10/25 06:46:28;;;;;;;20.70;11.73;;;;;;;20.68;44.41;94440.69;6180765;28;109258;-64
2023/10/25 06:49:31;;;;;;;17.10;11.48;;;;;;;20.68;44.58;94453.97;6175791;28;109010;-66
2023/10/25 06:52:35;;;;;;;19.80;11.77;;;;;;;20.67;44.72;94458.50;6161260;28;109128;-66
2023/10/25 06:55:39;;;;;;;21.40;11.55;;;;;;;20.66;44.76;94448.16;6161047;28;109286;-66
2023/10/25 06:58:42;;;;;;;17.95;11.15;;;;;;;20.65;44.60;94433.31;6151365;28;109798;-63
2023/10/25 07:01:53;;;;;;;20.90;10.83;;;;;;;20.65;44.38;94431.41;6160944;28;110234;-63
2023/10/25 07:05:09;;;;;;;21.40;11.20;;;;;;;20.67;44.38;94455.84;6161214;28;109438;-62
2023/10/25 07:08:14;;;;;;;19.77;11.40;;;;;;;20.66;44.40;94475.53;6160759;28;108981;-62
2023/10/25 07:11:17;;;;;;;18.60;11.50;;;;;;;20.70;44.74;94478.38;6150919;28;109221;-63
2023/10/25 07:14:20;;;;;;;23.77;11.80;;;;;;;20.71;44.72;94464.75;6161027;28;110093;-63
2023/10/25 07:17:27;;;;;;;21.65;11.30;;;;;;;20.68;44.77;94462.72;6160596;28;110529;-65
2023/10/25 07:20:31;;;;;;;22.10;11.93;;;;;;;20.78;44.78;94485.56;6156628;28;109506;-63
2023/10/25 07:23:34;;;;;;;21.98;12.23;;;;;;;20.87;44.77;94479.19;6156007;28;110064;-63
2023/10/25 07:26:37;;;;;;;20.60;11.35;;;;;;;20.91;44.93;94492.63;6180232;28;109532;-63
2023/10/25 07:29:44;;;;;;;21.47;12.20;;;;;;;20.97;44.77;94478.06;6184576;28;109174;-62
2023/10/25 07:32:48;;;;;;;17.55;11.00;;;;;;;20.99;45.07;94480.41;6174833;28;109437;-63
2023/10/25 07:35:51;;;;;;;18.13;11.07;;;;;;;21.00;44.76;94488.09;6184508;28;109120;-62
2023/10/25 07:38:55;;;;;;;20.40;11.27;;;;;;;21.03;44.81;94490.16;6184933;28;109305;-62
2023/10/25 07:41:58;;;;;;;19.38;11.80;;;;;;;21.04;44.78;94483.72;6162839;28;109241;-62
2023/10/25 07:45:01;;;;;;;24.27;12.00;;;;;;;21.07;44.52;94487.66;6149773;28;110287;-63
2023/10/25 07:48:06;;;;;;;19.02;12.30;;;;;;;21.08;44.66;94495.34;6160717;28;110083;-61
2023/10/25 07:51:09;;;;;;;18.02;11.30;;;;;;;21.01;44.83;94486.22;6160143;28;109155;-63
2023/10/25 07:54:12;;;;;;;19.95;12.05;;;;;;;20.98;45.27;94497.47;6160222;28;110044;-63
2023/10/25 07:57:15;;;;;;;20.53;12.10;;;;;;;20.93;44.67;94493.09;6151661;28;109077;-63
2023/10/25 08:00:39;;;;;;;21.25;10.93;;;;;;;20.89;44.54;94534.72;6170084;28;108974;-63
2023/10/25 08:03:43;;;;;;;17.33;9.82;;;;;;;20.85;44.58;94528.44;6184612;28;109162;-63
2023/10/25 08:06:49;;;;;;;21.60;10.57;;;;;;;20.81;44.77;94512.31;6174880;28;109646;-63
2023/10/25 08:09:53;;;;;;;17.33;8.95;;;;;;;20.81;44.86;94495.56;6182052;28;108955;-62
2023/10/25 08:12:56;;;;;;;16.80;8.90;;;;;;;20.80;44.81;94521.38;6160491;28;110199;-63
2023/10/25 08:15:59;;;;;;;21.33;8.63;;;;;;;20.82;44.70;94510.44;6160075;28;109046;-66
2023/10/25 08:19:04;;;;;;;18.10;8.48;;;;;;;20.81;44.55;94520.28;6150466;28;110190;-61
2023/10/25 08:22:08;;;;;;;15.95;8.40;;;;;;;20.80;44.84;94529.34;6160305;28;110036;-62
2023/10/25 08:25:11;;;;;;;17.08;8.80;;;;;;;20.82;44.62;94532.50;6160030;28;109184;-61
2023/10/25 08:28:15;;;;;;;18.03;8.90;;;;;;;20.84;44.75;94510.94;6159335;28;109302;-61
2023/10/25 08:31:19;;;;;;;18.25;8.23;;;;;;;20.80;44.64;94516.06;6150095;28;109049;-62
2023/10/25 08:34:23;;;;;;;17.70;7.60;;;;;;;20.82;44.52;94511.22;6159705;28;109052;-62
2023/10/25 08:37:27;;;;;;;17.10;7.53;;;;;;;20.81;44.34;94517.63;6159687;28;109214;-61
2023/10/25 08:40:32;;;;;;;15.45;7.05;;;;;;;20.85;44.40;94529.22;6151254;28;110361;-62
2023/10/25 08:43:36;;;;;;;14.90;7.23;;;;;;;20.83;44.48;94536.72;6162944;28;109074;-62
2023/10/25 08:46:41;;;;;;;13.95;7.47;;;;;;;20.83;44.34;94547.34;6163867;28;110050;-61
2023/10/25 08:49:45;;;;;;;14.53;6.93;;;;;;;20.83;44.44;94525.28;6163688;28;109096;-61
2023/10/25 08:52:50;;;;;;;12.73;6.70;;;;;;;20.84;44.09;94526.88;6137710;28;109219;-61
2023/10/25 08:55:54;;;;;;;14.73;6.40;;;;;;;20.85;44.31;94525.78;6163447;28;109380;-61
2023/10/25 08:58:59;;;;;;;14.90;6.30;;;;;;;20.85;44.36;94512.50;6163284;28;109231;-61
2023/10/25 09:02:04;;;;;;;13.00;6.20;;;;;;;20.86;44.32;94520.16;6181080;28;109316;-61
2023/10/25 09:05:09;;;;;;;16.70;6.28;;;;;;;20.87;44.31;94524.38;6176584;28;109227;-61
2023/10/25 09:08:16;;;;;;;15.10;6.13;;;;;;;20.89;44.10;94524.84;6187972;28;108998;-61
2023/10/25 09:11:19;;;;;;;12.48;5.95;;;;;;;20.91;44.09;94509.38;6176060;28;109213;-63
2023/10/25 09:14:22;;;;;;;16.70;5.70;;;;;;;20.92;44.06;94518.91;6158106;28;109691;-62
2023/10/25 09:17:26;;;;;;;17.77;6.70;;;;;;;20.96;44.27;94524.38;6158262;28;109252;-61
2023/10/25 09:20:30;;;;;;;17.77;6.82;;;;;;;20.99;43.76;94518.44;6167552;28;110027;-61
2023/10/25 09:23:34;;;;;;;17.70;6.95;;;;;;;21.00;44.03;94521.88;6172516;28;109262;-62
2023/10/25 09:26:40;;;;;;;15.07;6.25;;;;;;;21.01;43.97;94513.63;6151925;28;108990;-61
2023/10/25 09:29:43;;;;;;;19.15;6.85;;;;;;;21.02;43.77;94512.53;6162859;28;110064;-60
2023/10/25 09:32:46;;;;;;;15.82;6.05;;;;;;;21.04;43.88;94514.88;6185090;28;109410;-61
2023/10/25 09:35:52;;;;;;;17.35;6.30;;;;;;;21.04;43.97;94509.53;6186850;28;109023;-61
2023/10/25 09:38:56;;;;;;;13.15;5.78;;;;;;;21.05;43.86;94492.53;6177091;28;109921;-66
2023/10/25 09:42:03;;;;;;;14.85;6.00;;;;;;;21.06;43.98;94502.06;6187131;28;108994;-62
2023/10/25 09:45:11;;;;;;;14.88;5.75;;;;;;;21.06;43.69;94505.50;6187499;28;110200;-61
2023/10/25 09:48:16;;;;;;;15.32;6.20;;;;;;;21.07;43.68;94499.09;6182099;28;109197;-62
2023/10/25 09:51:30;;;;;;;15.07;7.65;;;;;;;21.07;43.98;94488.44;6171995;28;109079;-62
2023/10/25 09:54:35;;;;;;;16.20;7.47;;;;;;;21.09;43.98;94488.91;6162198;28;109138;-61
2023/10/25 09:57:39;;;;;;;17.73;6.93;;;;;;;21.12;43.82;94487.50;6182334;28;109280;-62
2023/10/25 10:00:43;;;;;;;14.53;6.83;;;;;;;21.20;43.94;94466.22;6176395;28;111054;-64
2023/10/25 10:03:50;;;;;;;13.30;6.45;;;;;;;21.41;43.83;94466.38;6186881;28;109436;-61
2023/10/25 10:07:09;;;;;;;13.03;6.40;;;;;;;21.55;43.23;94454.75;6186877;28;110197;-61
2023/10/25 10:10:22;;;;;;;13.32;5.95;;;;;;;21.63;43.54;94451.28;6186844;28;109217;-61
2023/10/25 10:13:26;;;;;;;11.05;5.88;;;;;;;21.65;43.96;94454.41;6128685;28;109840;-62
2023/10/25 10:16:29;;;;;;;11.63;6.70;;;;;;;21.67;44.37;94446.88;6146558;28;109086;-61
2023/10/25 10:19:33;;;;;;;13.80;6.40;;;;;;;21.68;44.02;94437.81;6162096;28;109867;-61
2023/10/25 10:23:03;;;;;;;12.35;6.60;;;;;;;21.70;43.94;94435.63;6156783;28;109071;-63
2023/10/25 10:26:07;;;;;;;13.23;6.38;;;;;;;21.70;44.30;94436.41;6161290;28;109273;-62
2023/10/25 10:29:40;;;;;;;12.33;6.80;;;;;;;21.68;44.38;94427.19;6161690;28;109113;-66
2023/10/25 10:32:55;;;;;;;11.65;6.30;;;;;;;21.60;44.06;94436.72;6180121;28;109350;-66
2023/10/25 10:36:01;;;;;;;12.88;7.05;;;;;;;21.54;44.12;94430.03;6171590;28;109040;-66
2023/10/25 10:39:16;;;;;;;12.15;6.70;;;;;;;21.52;44.49;94408.28;6161865;28;109125;-66
2023/10/25 10:42:20;;;;;;;11.30;6.72;;;;;;;21.50;43.81;94403.22;6176484;28;110083;-66
2023/10/25 10:45:24;;;;;;;10.63;6.17;;;;;;;21.49;43.93;94407.00;6179229;28;109229;-65
2023/10/25 10:48:32;;;;;;;13.07;6.90;;;;;;;21.48;44.27;94402.78;6183782;28;110054;-65
2023/10/25 10:51:37;;;;;;;17.00;6.65;;;;;;;21.47;44.20;94405.75;6186074;28;110090;-66
2023/10/25 10:54:41;;;;;;;11.73;6.30;;;;;;;21.45;44.45;94398.09;6163765;28;109181;-66
2023/10/25 10:57:45;;;;;;;12.30;6.47;;;;;;;21.43;44.35;94405.63;6167768;28;109347;-66
2023/10/25 11:01:08;;;;;;;13.25;6.50;;;;;;;21.41;44.10;94378.53;6185972;28;111342;-67
2023/10/25 11:04:11;;;;;;;13.75;6.30;;;;;;;21.39;43.85;94386.06;6185374;28;110228;-66
2023/10/25 11:07:17;;;;;;;13.13;6.10;;;;;;;21.40;43.92;94378.84;6185417;28;108996;-65
2023/10/25 11:10:22;;;;;;;14.98;6.85;;;;;;;21.39;44.08;94372.75;6175010;28;109197;-65
2023/10/25 11:13:28;;;;;;;14.50;7.03;;;;;;;21.39;44.11;94359.44;6185528;28;109017;-66
2023/10/25 11:16:31;;;;;;;18.50;8.87;;;;;;;21.41;44.21;94359.13;6178942;28;109149;-66
2023/10/25 11:19:34;;;;;;;15.57;9.97;;;;;;;21.40;44.49;94368.22;6153910;28;110115;-65
2023/10/25 11:22:37;;;;;;;14.50;10.17;;;;;;;21.41;44.26;94369.75;6159857;28;109411;-65
2023/10/25 11:25:42;;;;;;;16.27;10.23;;;;;;;21.42;44.53;94372.09;6161046;28;110002;-65
2023/10/25 11:28:45;;;;;;;16.40;10.30;;;;;;;21.42;44.63;94382.75;6160566;28;109185;-65
2023/10/25 11:31:49;;;;;;;15.63;10.23;;;;;;;21.42;44.52;94376.66;6158759;28;109307;-65
2023/10/25 11:34:56;;;;;;;16.43;9.40;;;;;;;21.39;44.52;94372.75;6185091;28;109960;-66
2023/10/25 11:37:59;;;;;;;16.57;10.43;;;;;;;21.41;44.68;94365.22;6185120;28;108969;-61
2023/10/25 11:41:05;;;;;;;16.88;10.25;;;;;;;21.49;44.83;94359.06;6184781;28;108927;-66
2023/10/25 11:44:09;;;;;;;19.35;10.00;;;;;;;21.55;45.42;94365.03;6174388;28;109081;-60
2023/10/25 11:47:17;;;;;;;15.40;9.53;;;;;;;21.52;45.11;94350.47;6174072;28;109297;-61
2023/10/25 11:50:21;;;;;;;18.33;10.20;;;;;;;21.51;45.29;94348.91;6160384;28;109191;-62
2023/10/25 11:53:24;;;;;;;15.23;9.88;;;;;;;21.48;45.22;94346.88;6154616;28;110123;-62
2023/10/25 11:56:29;;;;;;;15.07;9.70;;;;;;;21.46;44.66;94346.41;6158908;28;109062;-62
2023/10/25 11:59:32;;;;;;;14.50;8.43;;;;;;;21.46;44.94;94346.41;6184901;28;108905;-61
2023/10/25 12:02:35;;;;;;;17.93;9.57;;;;;;;21.46;45.19;94341.09;6184477;28;109301;-60
2023/10/25 12:05:38;;;;;;;15.07;9.20;;;;;;;21.45;45.03;94342.19;6173410;28;109208;-62
2023/10/25 12:08:43;;;;;;;17.08;9.00;;;;;;;21.45;45.04;94352.84;6184392;28;109049;-62
2023/10/25 12:11:47;;;;;;;16.43;9.37;;;;;;;21.45;45.19;94336.88;6184595;28;108893;-61
2023/10/25 12:14:51;;;;;;;16.48;9.43;;;;;;;21.45;45.00;94336.09;6184414;28;109724;-63
2023/10/25 12:17:54;;;;;;;16.45;8.73;;;;;;;21.43;44.90;94339.06;6162901;28;109952;-61
2023/10/25 12:20:57;;;;;;;15.23;8.90;;;;;;;21.44;44.92;94337.97;6164029;28;108755;-61
2023/10/25 12:24:00;;;;;;;16.83;9.32;;;;;;;21.43;44.75;94344.38;6164148;28;110010;-61
2023/10/25 12:27:06;;;;;;;16.70;9.00;;;;;;;21.43;45.12;94341.72;6159569;28;109184;-64
2023/10/25 12:30:10;;;;;;;16.47;8.80;;;;;;;21.42;44.77;94340.16;6158861;28;109353;-61
2023/10/25 12:33:13;;;;;;;15.07;8.30;;;;;;;21.42;45.00;94344.72;6179904;28;109181;-61
2023/10/25 12:36:16;;;;;;;17.60;8.33;;;;;;;21.40;44.88;94345.03;6188424;28;110209;-64
2023/10/25 12:39:20;;;;;;;17.17;8.15;;;;;;;21.41;44.98;94351.13;6153812;28;109214;-61
2023/10/25 12:42:24;;;;;;;15.60;9.00;;;;;;;21.42;44.78;94350.03;6163877;28;110217;-61
2023/10/25 12:45:29;;;;;;;17.40;8.55;;;;;;;21.42;44.57;94356.13;6163490;28;109107;-61
2023/10/25 12:48:32;;;;;;;19.37;8.47;;;;;;;21.42;44.92;94353.47;6164192;28;110226;-65
2023/10/25 12:51:36;;;;;;;18.05;8.40;;;;;;;21.41;44.99;94353.78;6152912;28;109362;-63
2023/10/25 12:54:39;;;;;;;15.93;7.87;;;;;;;21.42;44.80;94352.69;6163331;28;109208;-63
2023/10/25 12:57:44;;;;;;;18.33;8.07;;;;;;;21.41;44.43;94357.25;6163593;28;109439;-63
2023/10/25 13:00:47;;;;;;;18.50;7.93;;;;;;;21.41;44.82;94354.56;6163313;28;109157;-63
2023/10/25 13:03:50;;;;;;;18.63;8.40;;;;;;;21.41;44.77;94346.59;6153316;28;109201;-63
2023/10/25 13:06:53;;;;;;;22.60;8.35;;;;;;;21.40;44.33;94347.69;6163344;28;109034;-63
2023/10/25 13:09:56;;;;;;;17.48;7.85;;;;;;;21.39;44.74;94335.50;6163130;28;109007;-63
2023/10/25 13:13:01;;;;;;;19.17;7.20;;;;;;;21.36;44.47;94336.13;6170486;28;109045;-63
2023/10/25 13:16:05;;;;;;;17.20;7.60;;;;;;;21.39;44.75;94329.38;6183394;28;109205;-63
2023/10/25 13:19:08;;;;;;;21.17;7.87;;;;;;;21.39;44.70;94335.50;6166428;28;110074;-70
2023/10/25 13:22:11;;;;;;;17.83;7.60;;;;;;;21.38;44.54;94336.59;6167682;28;109088;-63
2023/10/25 13:25:14;;;;;;;17.23;7.23;;;;;;;21.38;44.87;94331.25;6152800;28;109305;-63
2023/10/25 13:28:19;;;;;;;19.27;7.18;;;;;;;21.39;45.07;94319.53;6175821;28;109064;-63
2023/10/25 13:31:22;;;;;;;20.03;7.50;;;;;;;21.37;44.89;94329.72;6187561;28;109426;-64
2023/10/25 13:34:25;;;;;;;21.38;7.80;;;;;;;21.38;45.08;94330.47;6164482;28;109255;-63
2023/10/25 13:37:28;;;;;;;19.20;6.78;;;;;;;21.36;45.09;94325.47;6152025;28;109087;-65
2023/10/25 13:40:31;;;;;;;18.95;7.07;;;;;;;21.37;44.95;94326.25;6162893;28;109082;-64
2023/10/25 13:43:39;;;;;;;24.02;8.00;;;;;;;21.37;44.95;94326.25;6162937;28;110192;-66
2023/10/25 13:46:42;;;;;;;19.10;7.10;;;;;;;21.37;45.34;94331.59;6157879;28;108757;-65
2023/10/25 13:49:46;;;;;;;21.10;7.82;;;;;;;21.38;44.96;94327.81;6157683;28;108968;-63
2023/10/25 13:52:49;;;;;;;20.08;7.22;;;;;;;21.36;45.18;94320.16;6162543;28;110038;-63
2023/10/25 13:55:52;;;;;;;22.88;8.00;;;;;;;21.35;45.30;94313.28;6162206;28;109240;-63
2023/10/25 13:58:56;;;;;;;23.10;7.63;;;;;;;21.36;45.48;94306.06;6151567;28;109281;-61
2023/10/25 14:01:59;;;;;;;26.85;7.90;;;;;;;21.36;45.45;94306.84;6161973;28;109473;-61
2023/10/25 14:05:03;;;;;;;27.27;7.60;;;;;;;21.36;45.35;94309.50;6162264;28;109864;-63
2023/10/25 14:08:06;;;;;;;28.10;8.10;;;;;;;21.37;45.54;94310.28;6161695;28;109273;-61